Laukaa, Finland
Kieli:  Suomi
-2°C CurCond
Päivitetty13/12/2018 06:40 
 

Lähistön Lentoasemien Säätiloja:

 

EFJY - Jyvaskyla (mil/C,) Finland
Etäisyys Sääasemalta: PKo 21km
Päivitetty: 13/12/2018 06:20
Pilvistä
Pilvistä
 Tuulen suunta varies
Tuuli: varies 4 km/h
Lämpötila: -2°C
Kastepiste: -4°C
Ilmankosteus: 86%
Ilmanpaine: 1033 hPa
Pilvisyys: Pilvistä
Näkyvyys: 10 km
Pilvisyystiedot: Pilvistä 457 m
2018/12/13 04:20 EFJY 130420Z AUTO VRB02KT 9999 OVC015 M02/M04 Q1033
EFHA - Halli (fin-Afb), Finland
Etäisyys Sääasemalta: Lo 56km
Päivitetty: 13/12/2018 06:20
Pilvistä
Pilvistä
 Tuulen suunta varies
Tuuli: varies 4 km/h
Lämpötila: -5°C
Kastepiste: -5°C
Ilmankosteus: 100%
Ilmanpaine: 1033 hPa
Pilvisyys: Pilvistä
Näkyvyys: 10 km
Pilvisyystiedot: Pilvistä 671 m
2018/12/13 04:20 EFHA 130420Z AUTO VRB02KT 9999 OVC022 M05/M05 Q1033
EFMI - Mikkeli, Finland
Etäisyys Sääasemalta: IKa 105km
Päivitetty: 13/12/2018 06:20
Pilvistä
Pilvistä
 Tuulen suunta Tyyntä
Tuuli: Tyyntä
Lämpötila: -2°C
Kastepiste: -3°C
Ilmankosteus: 93%
Ilmanpaine: 1033 hPa
Pilvisyys: Pilvistä
Näkyvyys: 10 km
Pilvisyystiedot: Enimmäkseen pilvistä 152 m
Pilvistä 792 m
2018/12/13 04:20 EFMI 130420Z AUTO 00000KT 9999 BKN005 OVC026 M02/M03 Q1033
 
EFTP - Tampere/Pirkkala, Finland
Etäisyys Sääasemalta: Lo 135km
Päivitetty: 13/12/2018 06:20
Pilvistä
Pilvistä
 Tuulen suunta Ko
Tuuli: Ko 7 km/h
Lämpötila: -2°C
Tuulen purevuus: -6°C
Kastepiste: -3°C
Ilmankosteus: 93%
Ilmanpaine: 1033 hPa
Pilvisyys: Pilvistä
Näkyvyys: 10 km
Pilvisyystiedot: Joitain Pilviä 274 m
Pilvistä 335 m
2018/12/13 04:20 EFTP 130420Z AUTO 05004KT 9999 FEW009 OVC011 M02/M03 Q1033
EFKU - Kuopio (mil/Civ), Finland
Etäisyys Sääasemalta: Ko 146km
Päivitetty: 13/12/2018 06:20
Pilvistä
Pilvistä
 Tuulen suunta varies
Tuuli: varies 2 km/h
Lämpötila: -2°C
Kastepiste: -5°C
Ilmankosteus: 80%
Ilmanpaine: 1034 hPa
Pilvisyys: Pilvistä
Näkyvyys: 10 km
Pilvisyystiedot: Pilvistä 732 m
2018/12/13 04:20 EFKU 130420Z AUTO VRB01KT 9999 OVC024 M02/M05 Q1034
EFSI - Seinajoki-Ilmajo, Finland
Etäisyys Sääasemalta: LLu 149km
Päivitetty: 13/12/2018 06:20
Heikkoa Lumisadetta, Kuurottaisia sateita, Pilvistä
Heikkoa Lumisadetta, Kuurottaisia sateita, Pilvistä
 Tuulen suunta EKa
Tuuli: EKa 4 km/h
Lämpötila: -3°C
Kastepiste: -4°C
Ilmankosteus: 93%
Ilmanpaine: 1034 hPa
Yhteenveto: Heikkoa Lumisadetta, Kuurottaisia sateita
Pilvisyys: Pilvistä
Näkyvyys: 10 km
Pilvisyystiedot: Puolipilvistä 213 m
Pilvistä 274 m
2018/12/13 04:20 EFSI 130420Z AUTO 15002KT 9999 -SHSN SCT007 OVC009 M03/M04 Q1034